sensor_id;sensor_type;location;lat;lon;timestamp;pressure;altitude;pressure_sealevel;temperature;humidity
4410;BME280;2218;51.408;7.208;2022-07-09T00:01:28;100964.63;;;23.82;46.65
4410;BME280;2218;51.408;7.208;2022-07-09T00:03:55;100961.00;;;23.83;46.53
4410;BME280;2218;51.408;7.208;2022-07-09T00:06:22;100956.66;;;23.82;46.64
4410;BME280;2218;51.408;7.208;2022-07-09T00:08:49;100957.59;;;23.81;46.47
4410;BME280;2218;51.408;7.208;2022-07-09T00:11:16;100948.78;;;23.81;46.73
4410;BME280;2218;51.408;7.208;2022-07-09T00:13:44;100952.28;;;23.81;46.45
4410;BME280;2218;51.408;7.208;2022-07-09T00:16:11;100944.44;;;23.80;46.68
4410;BME280;2218;51.408;7.208;2022-07-09T00:18:38;100946.13;;;23.81;46.66
4410;BME280;2218;51.408;7.208;2022-07-09T00:21:05;100951.44;;;23.81;46.52
4410;BME280;2218;51.408;7.208;2022-07-09T00:23:32;100947.94;;;23.80;46.79
4410;BME280;2218;51.408;7.208;2022-07-09T00:25:59;100955.91;;;23.80;46.93
4410;BME280;2218;51.408;7.208;2022-07-09T00:28:26;100948.91;;;23.79;46.72
4410;BME280;2218;51.408;7.208;2022-07-09T00:30:54;100948.06;;;23.79;46.55
4410;BME280;2218;51.408;7.208;2022-07-09T00:33:21;100945.28;;;23.80;46.48
4410;BME280;2218;51.408;7.208;2022-07-09T00:35:48;100944.53;;;23.78;46.70
4410;BME280;2218;51.408;7.208;2022-07-09T00:38:15;100943.59;;;23.79;46.51
4410;BME280;2218;51.408;7.208;2022-07-09T00:40:42;100943.59;;;23.79;46.66
4410;BME280;2218;51.408;7.208;2022-07-09T00:43:16;100941.03;;;23.78;46.79
4410;BME280;2218;51.408;7.208;2022-07-09T00:45:44;100944.53;;;23.78;46.57
4410;BME280;2218;51.408;7.208;2022-07-09T00:48:13;100939.25;;;23.78;46.34
4410;BME280;2218;51.408;7.208;2022-07-09T00:50:42;100932.22;;;23.77;46.52
4410;BME280;2218;51.408;7.208;2022-07-09T00:53:12;100931.28;;;23.78;46.60
4410;BME280;2218;51.408;7.208;2022-07-09T00:55:40;100925.13;;;23.78;46.79
4410;BME280;2218;51.408;7.208;2022-07-09T00:58:11;100924.28;;;23.77;46.59
4410;BME280;2218;51.408;7.208;2022-07-09T01:00:40;100921.63;;;23.77;46.35
4410;BME280;2218;51.408;7.208;2022-07-09T01:03:07;100925.19;;;23.76;46.69
4410;BME280;2218;51.408;7.208;2022-07-09T01:05:35;100919.03;;;23.76;46.78
4410;BME280;2218;51.408;7.208;2022-07-09T01:08:04;100917.25;;;23.76;47.04
4410;BME280;2218;51.408;7.208;2022-07-09T01:10:32;100919.91;;;23.76;46.71
4410;BME280;2218;51.408;7.208;2022-07-09T01:13:00;100920.84;;;23.75;46.84
4410;BME280;2218;51.408;7.208;2022-07-09T01:15:28;100917.25;;;23.76;46.83
4410;BME280;2218;51.408;7.208;2022-07-09T01:17:55;100920.13;;;23.73;46.85
4410;BME280;2218;51.408;7.208;2022-07-09T01:20:26;100913.84;;;23.74;46.40
4410;BME280;2218;51.408;7.208;2022-07-09T01:22:55;100914.69;;;23.75;46.89
4410;BME280;2218;51.408;7.208;2022-07-09T01:25:33;100914.69;;;23.75;46.96
4410;BME280;2218;51.408;7.208;2022-07-09T01:28:01;100912.16;;;23.73;46.68
4410;BME280;2218;51.408;7.208;2022-07-09T01:30:28;100913.84;;;23.74;46.78
4410;BME280;2218;51.408;7.208;2022-07-09T01:32:55;100913.00;;;23.73;46.76
4410;BME280;2218;51.408;7.208;2022-07-09T01:35:22;100913.00;;;23.73;47.13
4410;BME280;2218;51.408;7.208;2022-07-09T01:37:51;100909.50;;;23.73;46.94
4410;BME280;2218;51.408;7.208;2022-07-09T01:40:18;100912.16;;;23.73;46.83
4410;BME280;2218;51.408;7.208;2022-07-09T01:42:46;100910.47;;;23.72;47.00
4410;BME280;2218;51.408;7.208;2022-07-09T01:45:13;100906.84;;;23.73;46.69
4410;BME280;2218;51.408;7.208;2022-07-09T01:47:41;100905.16;;;23.72;46.82
4410;BME280;2218;51.408;7.208;2022-07-09T01:50:09;100906.00;;;23.72;46.47
4410;BME280;2218;51.408;7.208;2022-07-09T01:52:37;100904.28;;;23.71;47.01
4410;BME280;2218;51.408;7.208;2022-07-09T01:55:06;100899.84;;;23.72;46.64
4410;BME280;2218;51.408;7.208;2022-07-09T01:57:33;100896.44;;;23.70;46.57
4410;BME280;2218;51.408;7.208;2022-07-09T02:00:00;100891.97;;;23.70;46.99
4410;BME280;2218;51.408;7.208;2022-07-09T02:02:38;100891.97;;;23.70;46.96
4410;BME280;2218;51.408;7.208;2022-07-09T02:05:06;100886.66;;;23.70;46.70
4410;BME280;2218;51.408;7.208;2022-07-09T02:07:33;100884.97;;;23.69;46.80
4410;BME280;2218;51.408;7.208;2022-07-09T02:10:01;100884.97;;;23.69;46.82
4410;BME280;2218;51.408;7.208;2022-07-09T02:12:29;100884.97;;;23.69;46.72
4410;BME280;2218;51.408;7.208;2022-07-09T02:14:56;100879.66;;;23.69;46.63
4410;BME280;2218;51.408;7.208;2022-07-09T02:17:23;100886.78;;;23.69;47.04
4410;BME280;2218;51.408;7.208;2022-07-09T02:19:50;100877.97;;;23.68;47.40
4410;BME280;2218;51.408;7.208;2022-07-09T02:22:17;100877.13;;;23.68;47.17
4410;BME280;2218;51.408;7.208;2022-07-09T02:24:44;100877.13;;;23.68;47.34
4410;BME280;2218;51.408;7.208;2022-07-09T02:27:11;100876.28;;;23.67;47.28
4410;BME280;2218;51.408;7.208;2022-07-09T02:29:39;100877.13;;;23.68;46.63
4410;BME280;2218;51.408;7.208;2022-07-09T02:32:08;100882.44;;;23.68;46.84
4410;BME280;2218;51.408;7.208;2022-07-09T02:34:36;100885.09;;;23.68;47.31
4410;BME280;2218;51.408;7.208;2022-07-09T02:37:04;100883.38;;;23.67;46.91
4410;BME280;2218;51.408;7.208;2022-07-09T02:39:31;100886.91;;;23.67;47.05
4410;BME280;2218;51.408;7.208;2022-07-09T02:41:58;100884.25;;;23.67;47.25
4410;BME280;2218;51.408;7.208;2022-07-09T02:44:25;100886.03;;;23.67;46.74
4410;BME280;2218;51.408;7.208;2022-07-09T02:46:54;100881.66;;;23.66;47.13
4410;BME280;2218;51.408;7.208;2022-07-09T02:49:21;100886.97;;;23.66;47.23
4410;BME280;2218;51.408;7.208;2022-07-09T02:51:49;100872.88;;;23.65;47.49
4410;BME280;2218;51.408;7.208;2022-07-09T02:54:17;100868.41;;;23.66;47.32
4410;BME280;2218;51.408;7.208;2022-07-09T02:56:44;100866.72;;;23.65;47.13
4410;BME280;2218;51.408;7.208;2022-07-09T02:59:11;100870.22;;;23.65;46.92
4410;BME280;2218;51.408;7.208;2022-07-09T03:01:38;100867.56;;;23.65;47.39
4410;BME280;2218;51.408;7.208;2022-07-09T03:04:06;100864.16;;;23.63;47.54
4410;BME280;2218;51.408;7.208;2022-07-09T03:06:33;100864.06;;;23.65;47.20
4410;BME280;2218;51.408;7.208;2022-07-09T03:09:00;100860.56;;;23.64;47.22
4410;BME280;2218;51.408;7.208;2022-07-09T03:11:27;100866.72;;;23.65;47.08
4410;BME280;2218;51.408;7.208;2022-07-09T03:13:54;100864.06;;;23.65;47.14
4410;BME280;2218;51.408;7.208;2022-07-09T03:16:22;100854.41;;;23.64;47.29
4410;BME280;2218;51.408;7.208;2022-07-09T03:18:49;100860.56;;;23.64;46.93
4410;BME280;2218;51.408;7.208;2022-07-09T03:21:17;100857.91;;;23.64;46.92
4410;BME280;2218;51.408;7.208;2022-07-09T03:23:44;100859.72;;;23.64;47.23
4410;BME280;2218;51.408;7.208;2022-07-09T03:26:11;100858.88;;;23.63;47.36
4410;BME280;2218;51.408;7.208;2022-07-09T03:28:38;100858.00;;;23.63;47.04
4410;BME280;2218;51.408;7.208;2022-07-09T03:31:05;100850.97;;;23.62;46.83
4410;BME280;2218;51.408;7.208;2022-07-09T03:33:32;100867.75;;;23.62;46.97
4410;BME280;2218;51.408;7.208;2022-07-09T03:35:59;100858.06;;;23.61;46.88
4410;BME280;2218;51.408;7.208;2022-07-09T03:38:28;100858.91;;;23.62;47.48
4410;BME280;2218;51.408;7.208;2022-07-09T03:40:55;100861.56;;;23.62;47.31
4410;BME280;2218;51.408;7.208;2022-07-09T03:43:22;100866.88;;;23.62;47.42
4410;BME280;2218;51.408;7.208;2022-07-09T03:45:49;100862.53;;;23.61;46.85
4410;BME280;2218;51.408;7.208;2022-07-09T03:48:16;100858.06;;;23.61;47.33
4410;BME280;2218;51.408;7.208;2022-07-09T03:50:43;100856.38;;;23.60;47.27
4410;BME280;2218;51.408;7.208;2022-07-09T03:53:10;100855.53;;;23.60;47.63
4410;BME280;2218;51.408;7.208;2022-07-09T03:55:39;100858.19;;;23.60;47.36
4410;BME280;2218;51.408;7.208;2022-07-09T03:58:06;100860.84;;;23.60;46.94
4410;BME280;2218;51.408;7.208;2022-07-09T04:00:33;100863.50;;;23.60;47.08
4410;BME280;2218;51.408;7.208;2022-07-09T04:03:00;100858.19;;;23.60;46.94
4410;BME280;2218;51.408;7.208;2022-07-09T04:05:27;100858.19;;;23.60;46.91
4410;BME280;2218;51.408;7.208;2022-07-09T04:07:54;100851.19;;;23.59;47.41
4410;BME280;2218;51.408;7.208;2022-07-09T04:10:21;100852.03;;;23.59;46.93
4410;BME280;2218;51.408;7.208;2022-07-09T04:12:49;100856.50;;;23.59;47.24
4410;BME280;2218;51.408;7.208;2022-07-09T04:15:16;100855.66;;;23.58;47.23
4410;BME280;2218;51.408;7.208;2022-07-09T04:17:44;100845.88;;;23.59;47.43
4410;BME280;2218;51.408;7.208;2022-07-09T04:20:11;100845.88;;;23.59;47.11
4410;BME280;2218;51.408;7.208;2022-07-09T04:22:38;100859.16;;;23.59;47.04
4410;BME280;2218;51.408;7.208;2022-07-09T04:25:06;100856.50;;;23.59;47.10
4410;BME280;2218;51.408;7.208;2022-07-09T04:27:33;100856.50;;;23.59;47.67
4410;BME280;2218;51.408;7.208;2022-07-09T04:30:04;100854.81;;;23.58;47.08
4410;BME280;2218;51.408;7.208;2022-07-09T04:32:31;100863.63;;;23.58;47.56
4410;BME280;2218;51.408;7.208;2022-07-09T04:34:58;100854.81;;;23.58;47.47
4410;BME280;2218;51.408;7.208;2022-07-09T04:37:25;100848.66;;;23.57;47.47
4410;BME280;2218;51.408;7.208;2022-07-09T04:39:52;100849.50;;;23.58;47.38
4410;BME280;2218;51.408;7.208;2022-07-09T04:42:19;100851.31;;;23.57;47.51
4410;BME280;2218;51.408;7.208;2022-07-09T04:44:46;100844.19;;;23.58;47.16
4410;BME280;2218;51.408;7.208;2022-07-09T04:47:15;100854.81;;;23.58;47.63
4410;BME280;2218;51.408;7.208;2022-07-09T04:49:42;100854.81;;;23.58;47.21
4410;BME280;2218;51.408;7.208;2022-07-09T04:52:09;100851.19;;;23.59;47.72
4410;BME280;2218;51.408;7.208;2022-07-09T04:54:36;100858.19;;;23.60;47.29
4410;BME280;2218;51.408;7.208;2022-07-09T04:57:04;100844.91;;;23.60;47.63
4410;BME280;2218;51.408;7.208;2022-07-09T04:59:32;100855.41;;;23.61;47.48
4410;BME280;2218;51.408;7.208;2022-07-09T05:01:58;100852.47;;;23.66;46.97
4410;BME280;2218;51.408;7.208;2022-07-09T05:04:27;100862.78;;;23.70;47.35
4410;BME280;2218;51.408;7.208;2022-07-09T05:06:54;100859.69;;;23.77;46.92
4410;BME280;2218;51.408;7.208;2022-07-09T05:09:21;100852.16;;;23.83;46.93
4410;BME280;2218;51.408;7.208;2022-07-09T05:11:48;100862.34;;;23.89;46.74
4410;BME280;2218;51.408;7.208;2022-07-09T05:14:15;100866.47;;;23.93;46.62
4410;BME280;2218;51.408;7.208;2022-07-09T05:16:42;100865.19;;;23.99;46.59
4410;BME280;2218;51.408;7.208;2022-07-09T05:19:10;100867.28;;;24.07;46.59
4410;BME280;2218;51.408;7.208;2022-07-09T05:21:39;100877.69;;;24.10;46.91
4410;BME280;2218;51.408;7.208;2022-07-09T05:24:07;100870.25;;;24.15;46.73
4410;BME280;2218;51.408;7.208;2022-07-09T05:26:35;100870.78;;;24.20;46.90
4410;BME280;2218;51.408;7.208;2022-07-09T05:29:02;100865.13;;;24.24;46.58
4410;BME280;2218;51.408;7.208;2022-07-09T05:31:29;100868.44;;;24.28;46.96
4410;BME280;2218;51.408;7.208;2022-07-09T05:33:56;100878.53;;;24.23;47.01
4410;BME280;2218;51.408;7.208;2022-07-09T05:36:23;100868.97;;;24.20;47.23
4410;BME280;2218;51.408;7.208;2022-07-09T05:38:52;100866.44;;;24.19;47.03
4410;BME280;2218;51.408;7.208;2022-07-09T05:41:19;100872.69;;;24.18;47.21
4410;BME280;2218;51.408;7.208;2022-07-09T05:43:48;100870.13;;;24.16;46.71
4410;BME280;2218;51.408;7.208;2022-07-09T05:46:15;100871.94;;;24.16;47.09
4410;BME280;2218;51.408;7.208;2022-07-09T05:48:42;100872.78;;;24.16;46.68
4410;BME280;2218;51.408;7.208;2022-07-09T05:51:09;100870.03;;;24.18;47.13
4410;BME280;2218;51.408;7.208;2022-07-09T05:53:36;100863.03;;;24.17;46.67
4410;BME280;2218;51.408;7.208;2022-07-09T05:56:05;100871.00;;;24.17;47.57
4410;BME280;2218;51.408;7.208;2022-07-09T05:58:33;100859.94;;;24.23;47.32
4410;BME280;2218;51.408;7.208;2022-07-09T06:01:00;100863.94;;;24.29;46.98
4410;BME280;2218;51.408;7.208;2022-07-09T06:03:27;100860.13;;;24.33;47.05
4410;BME280;2218;51.408;7.208;2022-07-09T06:05:54;100875.75;;;24.37;46.85
4410;BME280;2218;51.408;7.208;2022-07-09T06:08:21;100865.13;;;24.37;46.87
4410;BME280;2218;51.408;7.208;2022-07-09T06:10:48;100868.53;;;24.39;46.82
4410;BME280;2218;51.408;7.208;2022-07-09T06:13:17;100870.97;;;24.42;46.52
4410;BME280;2218;51.408;7.208;2022-07-09T06:15:44;100866.38;;;24.44;47.16
4410;BME280;2218;51.408;7.208;2022-07-09T06:18:11;100867.22;;;24.45;46.37
4410;BME280;2218;51.408;7.208;2022-07-09T06:20:39;100864.44;;;24.46;46.59
4410;BME280;2218;51.408;7.208;2022-07-09T06:23:06;100859.13;;;24.46;46.90
4410;BME280;2218;51.408;7.208;2022-07-09T06:25:33;100857.22;;;24.48;47.02
4410;BME280;2218;51.408;7.208;2022-07-09T06:28:00;100863.25;;;24.50;46.94
4410;BME280;2218;51.408;7.208;2022-07-09T06:30:29;100866.16;;;24.47;46.70
4410;BME280;2218;51.408;7.208;2022-07-09T06:32:57;100860.94;;;24.46;47.08
4410;BME280;2218;51.408;7.208;2022-07-09T06:35:24;100869.75;;;24.46;46.96
4410;BME280;2218;51.408;7.208;2022-07-09T06:37:51;100865.41;;;24.45;47.00
4410;BME280;2218;51.408;7.208;2022-07-09T06:40:18;100871.47;;;24.47;47.14
4410;BME280;2218;51.408;7.208;2022-07-09T06:42:45;100874.00;;;24.49;46.80
4410;BME280;2218;51.408;7.208;2022-07-09T06:45:18;100868.81;;;24.47;46.99
4410;BME280;2218;51.408;7.208;2022-07-09T06:47:46;100871.47;;;24.47;46.99
4410;BME280;2218;51.408;7.208;2022-07-09T06:50:14;100866.16;;;24.47;47.01
4410;BME280;2218;51.408;7.208;2022-07-09T06:52:41;100867.84;;;24.48;46.93
4410;BME280;2218;51.408;7.208;2022-07-09T06:55:08;100868.69;;;24.49;47.03
4410;BME280;2218;51.408;7.208;2022-07-09T06:57:36;100860.72;;;24.49;46.90
4410;BME280;2218;51.408;7.208;2022-07-09T07:00:05;100864.22;;;24.49;47.04
4410;BME280;2218;51.408;7.208;2022-07-09T07:02:32;100861.56;;;24.49;46.99
4410;BME280;2218;51.408;7.208;2022-07-09T07:05:00;100856.25;;;24.49;46.97
4410;BME280;2218;51.408;7.208;2022-07-09T07:07:27;100859.75;;;24.50;46.92
4410;BME280;2218;51.408;7.208;2022-07-09T07:09:54;100855.28;;;24.50;47.13
4410;BME280;2218;51.408;7.208;2022-07-09T07:12:21;100861.44;;;24.51;47.33
4410;BME280;2218;51.408;7.208;2022-07-09T07:14:48;100856.25;;;24.49;47.27
4410;BME280;2218;51.408;7.208;2022-07-09T07:17:16;100858.06;;;24.49;47.36
4410;BME280;2218;51.408;7.208;2022-07-09T07:19:43;100858.91;;;24.49;47.13
4410;BME280;2218;51.408;7.208;2022-07-09T07:22:11;100860.59;;;24.50;47.05
4410;BME280;2218;51.408;7.208;2022-07-09T07:24:38;100865.06;;;24.50;47.25
4410;BME280;2218;51.408;7.208;2022-07-09T07:27:05;100863.16;;;24.52;46.96
4410;BME280;2218;51.408;7.208;2022-07-09T07:29:32;100860.50;;;24.52;46.69
4410;BME280;2218;51.408;7.208;2022-07-09T07:31:59;100858.69;;;24.53;47.03
4410;BME280;2218;51.408;7.208;2022-07-09T07:34:26;100864.00;;;24.53;47.20
4410;BME280;2218;51.408;7.208;2022-07-09T07:36:53;100861.44;;;24.51;47.16
4410;BME280;2218;51.408;7.208;2022-07-09T07:39:22;100863.25;;;24.50;47.30
4410;BME280;2218;51.408;7.208;2022-07-09T07:41:50;100853.59;;;24.49;47.12
4410;BME280;2218;51.408;7.208;2022-07-09T07:44:17;100846.59;;;24.48;47.05
4410;BME280;2218;51.408;7.208;2022-07-09T07:46:45;100849.13;;;24.50;47.14
4410;BME280;2218;51.408;7.208;2022-07-09T07:49:12;100851.78;;;24.50;46.93
4410;BME280;2218;51.408;7.208;2022-07-09T07:51:39;100855.28;;;24.50;47.00
4410;BME280;2218;51.408;7.208;2022-07-09T07:54:06;100856.03;;;24.53;46.85
4410;BME280;2218;51.408;7.208;2022-07-09T07:56:34;100848.06;;;24.53;46.82
4410;BME280;2218;51.408;7.208;2022-07-09T07:59:02;100850.72;;;24.53;47.41
4410;BME280;2218;51.408;7.208;2022-07-09T08:01:29;100859.53;;;24.53;47.20
4410;BME280;2218;51.408;7.208;2022-07-09T08:03:56;100855.06;;;24.54;47.55
4410;BME280;2218;51.408;7.208;2022-07-09T08:06:23;100854.22;;;24.53;46.95
4410;BME280;2218;51.408;7.208;2022-07-09T08:08:50;100853.38;;;24.53;47.15
4410;BME280;2218;51.408;7.208;2022-07-09T08:11:17;100860.38;;;24.54;47.57
4410;BME280;2218;51.408;7.208;2022-07-09T08:13:46;100859.41;;;24.55;46.99
4410;BME280;2218;51.408;7.208;2022-07-09T08:16:12;100850.72;;;24.53;47.37
4410;BME280;2218;51.408;7.208;2022-07-09T08:18:40;100849.88;;;24.52;47.08
4410;BME280;2218;51.408;7.208;2022-07-09T08:21:07;100843.59;;;24.53;47.28
4410;BME280;2218;51.408;7.208;2022-07-09T08:23:33;100847.09;;;24.54;47.54
4410;BME280;2218;51.408;7.208;2022-07-09T08:26:18;100855.06;;;24.54;47.36
4410;BME280;2218;51.408;7.208;2022-07-09T08:28:47;100846.13;;;24.55;47.06
4410;BME280;2218;51.408;7.208;2022-07-09T08:31:14;100837.44;;;24.53;47.25
4410;BME280;2218;51.408;7.208;2022-07-09T08:33:41;100832.97;;;24.53;47.38
4410;BME280;2218;51.408;7.208;2022-07-09T08:36:08;100832.13;;;24.53;47.27
4410;BME280;2218;51.408;7.208;2022-07-09T08:38:35;100809.91;;;24.54;47.25
4410;BME280;2218;51.408;7.208;2022-07-09T08:41:05;100810.84;;;24.53;47.04
4410;BME280;2218;51.408;7.208;2022-07-09T08:43:33;100818.72;;;24.54;47.35
4410;BME280;2218;51.408;7.208;2022-07-09T08:46:03;100820.41;;;24.55;47.20
4410;BME280;2218;51.408;7.208;2022-07-09T08:48:33;100815.09;;;24.55;47.11
4410;BME280;2218;51.408;7.208;2022-07-09T08:51:01;100803.59;;;24.55;47.06
4410;BME280;2218;51.408;7.208;2022-07-09T08:53:28;100801.91;;;24.54;47.33
4410;BME280;2218;51.408;7.208;2022-07-09T08:55:56;100800.09;;;24.54;46.97
4410;BME280;2218;51.408;7.208;2022-07-09T08:58:24;100800.94;;;24.55;47.38
4410;BME280;2218;51.408;7.208;2022-07-09T09:00:51;100800.22;;;24.53;47.64
4410;BME280;2218;51.408;7.208;2022-07-09T09:03:20;100798.28;;;24.55;47.34
4410;BME280;2218;51.408;7.208;2022-07-09T09:06:01;100793.94;;;24.54;47.41
4410;BME280;2218;51.408;7.208;2022-07-09T09:08:33;100805.53;;;24.53;47.19
4410;BME280;2218;51.408;7.208;2022-07-09T09:11:03;100805.53;;;24.53;47.42
4410;BME280;2218;51.408;7.208;2022-07-09T09:13:37;100796.72;;;24.52;47.52
4410;BME280;2218;51.408;7.208;2022-07-09T09:16:09;100793.22;;;24.52;47.37
4410;BME280;2218;51.408;7.208;2022-07-09T09:18:41;100791.28;;;24.54;47.48
4410;BME280;2218;51.408;7.208;2022-07-09T09:21:09;100790.44;;;24.53;47.35
4410;BME280;2218;51.408;7.208;2022-07-09T09:23:42;100794.91;;;24.53;47.33
4410;BME280;2218;51.408;7.208;2022-07-09T09:26:11;100793.94;;;24.54;47.33
4410;BME280;2218;51.408;7.208;2022-07-09T09:28:50;100798.41;;;24.53;47.22
4410;BME280;2218;51.408;7.208;2022-07-09T09:31:22;100790.44;;;24.53;47.64
4410;BME280;2218;51.408;7.208;2022-07-09T09:33:52;100784.28;;;24.53;47.42
4410;BME280;2218;51.408;7.208;2022-07-09T09:36:32;100786.94;;;24.53;47.55
4410;BME280;2218;51.408;7.208;2022-07-09T09:39:16;100793.22;;;24.52;47.59
4410;BME280;2218;51.408;7.208;2022-07-09T09:41:46;100797.66;;;24.51;47.72
4410;BME280;2218;51.408;7.208;2022-07-09T09:44:16;100786.19;;;24.50;47.50
4410;BME280;2218;51.408;7.208;2022-07-09T09:46:44;100791.50;;;24.50;47.49
4410;BME280;2218;51.408;7.208;2022-07-09T09:49:15;100788.00;;;24.50;47.28
4410;BME280;2218;51.408;7.208;2022-07-09T09:51:51;100783.53;;;24.50;47.87
4410;BME280;2218;51.408;7.208;2022-07-09T09:54:23;100780.03;;;24.50;47.69
4410;BME280;2218;51.408;7.208;2022-07-09T09:56:50;100780.88;;;24.50;47.97
4410;BME280;2218;51.408;7.208;2022-07-09T09:59:17;100772.91;;;24.50;47.79
4410;BME280;2218;51.408;7.208;2022-07-09T10:01:45;100784.50;;;24.49;47.94
4410;BME280;2218;51.408;7.208;2022-07-09T10:04:15;100774.72;;;24.50;48.04
4410;BME280;2218;51.408;7.208;2022-07-09T10:06:43;100777.50;;;24.48;47.98
4410;BME280;2218;51.408;7.208;2022-07-09T10:09:13;100779.19;;;24.49;47.69
4410;BME280;2218;51.408;7.208;2022-07-09T10:11:42;100776.53;;;24.49;47.75
4410;BME280;2218;51.408;7.208;2022-07-09T10:14:16;100768.56;;;24.49;47.60
4410;BME280;2218;51.408;7.208;2022-07-09T10:16:43;100768.44;;;24.51;47.75
4410;BME280;2218;51.408;7.208;2022-07-09T10:19:24;100770.25;;;24.50;47.99
4410;BME280;2218;51.408;7.208;2022-07-09T10:21:53;100773.88;;;24.49;47.73
4410;BME280;2218;51.408;7.208;2022-07-09T10:24:25;100761.56;;;24.48;47.62
4410;BME280;2218;51.408;7.208;2022-07-09T10:26:52;100766.88;;;24.48;47.51
4410;BME280;2218;51.408;7.208;2022-07-09T10:29:28;100757.94;;;24.49;47.61
4410;BME280;2218;51.408;7.208;2022-07-09T10:31:56;100760.59;;;24.49;47.46
4410;BME280;2218;51.408;7.208;2022-07-09T10:34:55;100763.25;;;24.49;47.75
4410;BME280;2218;51.408;7.208;2022-07-09T10:37:34;100758.91;;;24.48;47.62
4410;BME280;2218;51.408;7.208;2022-07-09T10:40:12;100757.94;;;24.49;47.57
4410;BME280;2218;51.408;7.208;2022-07-09T10:42:40;100760.59;;;24.49;47.53
4410;BME280;2218;51.408;7.208;2022-07-09T10:45:25;100748.97;;;24.50;47.56
4410;BME280;2218;51.408;7.208;2022-07-09T10:47:59;100753.44;;;24.50;47.36
4410;BME280;2218;51.408;7.208;2022-07-09T10:50:30;100741.97;;;24.49;47.63
4410;BME280;2218;51.408;7.208;2022-07-09T10:52:58;100745.59;;;24.48;47.69
4410;BME280;2218;51.408;7.208;2022-07-09T10:55:30;100739.31;;;24.49;47.55
4410;BME280;2218;51.408;7.208;2022-07-09T10:57:58;100740.28;;;24.48;47.84
4410;BME280;2218;51.408;7.208;2022-07-09T11:00:26;100741.13;;;24.49;48.11
4410;BME280;2218;51.408;7.208;2022-07-09T11:02:56;100739.53;;;24.46;47.94
4410;BME280;2218;51.408;7.208;2022-07-09T11:05:27;100739.44;;;24.48;47.93
4410;BME280;2218;51.408;7.208;2022-07-09T11:08:00;100737.75;;;24.47;47.45
4410;BME280;2218;51.408;7.208;2022-07-09T11:10:28;100738.59;;;24.47;47.74
4410;BME280;2218;51.408;7.208;2022-07-09T11:12:57;100738.59;;;24.47;47.59
4410;BME280;2218;51.408;7.208;2022-07-09T11:15:27;100740.28;;;24.48;47.62
4410;BME280;2218;51.408;7.208;2022-07-09T11:18:00;100729.66;;;24.48;47.66
4410;BME280;2218;51.408;7.208;2022-07-09T11:20:31;100727.72;;;24.50;47.36
4410;BME280;2218;51.408;7.208;2022-07-09T11:22:58;100717.09;;;24.50;47.21
4410;BME280;2218;51.408;7.208;2022-07-09T11:25:28;100730.28;;;24.52;47.48
4410;BME280;2218;51.408;7.208;2022-07-09T11:27:55;100714.34;;;24.52;47.42
4410;BME280;2218;51.408;7.208;2022-07-09T11:30:23;100715.19;;;24.53;47.85
4410;BME280;2218;51.408;7.208;2022-07-09T11:32:51;100709.03;;;24.52;47.68
4410;BME280;2218;51.408;7.208;2022-07-09T11:35:31;100703.72;;;24.52;47.71
4410;BME280;2218;51.408;7.208;2022-07-09T11:38:02;100699.25;;;24.53;47.80
4410;BME280;2218;51.408;7.208;2022-07-09T11:40:30;100704.56;;;24.53;47.53
4410;BME280;2218;51.408;7.208;2022-07-09T11:42:57;100698.41;;;24.52;47.87
4410;BME280;2218;51.408;7.208;2022-07-09T11:45:26;100692.25;;;24.52;47.50
4410;BME280;2218;51.408;7.208;2022-07-09T11:48:04;100691.28;;;24.53;47.56
4410;BME280;2218;51.408;7.208;2022-07-09T11:50:40;100686.03;;;24.51;47.64
4410;BME280;2218;51.408;7.208;2022-07-09T11:53:07;100686.16;;;24.49;47.75
4410;BME280;2218;51.408;7.208;2022-07-09T11:55:57;100679.16;;;24.48;47.67
4410;BME280;2218;51.408;7.208;2022-07-09T11:58:26;100680.13;;;24.47;47.71
4410;BME280;2218;51.408;7.208;2022-07-09T12:00:53;100687.28;;;24.47;47.85
4410;BME280;2218;51.408;7.208;2022-07-09T12:03:23;100680.22;;;24.46;47.71
4410;BME280;2218;51.408;7.208;2022-07-09T12:05:52;100682.03;;;24.45;47.37
4410;BME280;2218;51.408;7.208;2022-07-09T12:08:27;100682.91;;;24.46;47.54
4410;BME280;2218;51.408;7.208;2022-07-09T12:10:56;100676.72;;;24.45;47.71
4410;BME280;2218;51.408;7.208;2022-07-09T12:13:23;100682.03;;;24.45;47.65
4410;BME280;2218;51.408;7.208;2022-07-09T12:15:50;100678.44;;;24.46;47.75
4410;BME280;2218;51.408;7.208;2022-07-09T12:18:17;100678.44;;;24.46;47.56
4410;BME280;2218;51.408;7.208;2022-07-09T12:20:44;100669.50;;;24.47;47.59
4410;BME280;2218;51.408;7.208;2022-07-09T12:23:13;100671.31;;;24.47;47.32
4410;BME280;2218;51.408;7.208;2022-07-09T12:25:40;100660.56;;;24.48;47.67
4410;BME280;2218;51.408;7.208;2022-07-09T12:28:07;100667.69;;;24.48;47.45
4410;BME280;2218;51.408;7.208;2022-07-09T12:30:34;100674.81;;;24.47;47.50
4410;BME280;2218;51.408;7.208;2022-07-09T12:33:01;100658.13;;;24.45;47.71
4410;BME280;2218;51.408;7.208;2022-07-09T12:35:28;100669.72;;;24.44;47.99
4410;BME280;2218;51.408;7.208;2022-07-09T12:37:55;100684.84;;;24.44;47.36
4410;BME280;2218;51.408;7.208;2022-07-09T12:40:24;100695.59;;;24.42;47.48
4410;BME280;2218;51.408;7.208;2022-07-09T12:42:51;100698.25;;;24.42;47.82
4410;BME280;2218;51.408;7.208;2022-07-09T12:45:18;100702.72;;;24.42;47.98
4410;BME280;2218;51.408;7.208;2022-07-09T12:47:45;100701.84;;;24.41;48.02
4410;BME280;2218;51.408;7.208;2022-07-09T12:50:12;100683.25;;;24.41;47.76
4410;BME280;2218;51.408;7.208;2022-07-09T12:52:39;100681.47;;;24.42;48.19
4410;BME280;2218;51.408;7.208;2022-07-09T12:55:09;100682.41;;;24.41;47.96
4410;BME280;2218;51.408;7.208;2022-07-09T12:57:37;100684.22;;;24.40;48.34
4410;BME280;2218;51.408;7.208;2022-07-09T13:00:06;100678.91;;;24.40;48.47
4410;BME280;2218;51.408;7.208;2022-07-09T13:02:33;100678.91;;;24.40;48.25
4410;BME280;2218;51.408;7.208;2022-07-09T13:05:01;100688.69;;;24.40;48.06
4410;BME280;2218;51.408;7.208;2022-07-09T13:07:27;100689.53;;;24.40;48.49
4410;BME280;2218;51.408;7.208;2022-07-09T13:09:54;100692.31;;;24.39;47.82
4410;BME280;2218;51.408;7.208;2022-07-09T13:12:21;100696.78;;;24.38;47.99
4410;BME280;2218;51.408;7.208;2022-07-09T13:14:50;100702.94;;;24.39;48.22
4410;BME280;2218;51.408;7.208;2022-07-09T13:17:17;100703.06;;;24.37;48.26